createdAt,value
2023-07-03T00:11:56.822Z,16.728
2023-07-03T00:26:58.614Z,17.179
2023-07-03T00:42:00.382Z,17.599
2023-07-03T00:57:02.174Z,17.769
2023-07-03T01:12:04.973Z,17.955
2023-07-03T01:27:06.870Z,18.188
2023-07-03T01:42:08.687Z,18.249
2023-07-03T01:57:10.497Z,18.384
2023-07-03T02:12:12.334Z,18.545
2023-07-03T02:27:14.260Z,18.777
2023-07-03T02:42:16.154Z,18.965
2023-07-03T02:57:17.995Z,19.072
2023-07-03T03:12:19.901Z,19.39
2023-07-03T03:27:21.718Z,19.341
2023-07-03T03:42:23.544Z,18.334
2023-07-03T03:57:25.373Z,17.727
2023-07-03T04:12:27.150Z,17.479
2023-07-03T04:27:28.983Z,17.314
2023-07-03T04:42:30.816Z,17.277
2023-07-03T04:57:32.781Z,16.893
2023-07-03T05:12:34.598Z,16.628
2023-07-03T05:27:36.436Z,16.616
2023-07-03T05:42:38.240Z,16.461
2023-07-03T05:57:40.102Z,16.176
2023-07-03T06:12:41.949Z,16.004
2023-07-03T06:27:43.794Z,16.147
2023-07-03T06:42:45.556Z,16.13
2023-07-03T06:57:47.482Z,16.065
2023-07-03T07:12:49.242Z,16.066
2023-07-03T07:27:51.044Z,16.145
2023-07-03T07:42:52.845Z,16.198
2023-07-03T07:57:54.603Z,16.391
2023-07-03T08:12:56.500Z,16.526
2023-07-03T08:27:58.309Z,16.621
2023-07-03T08:43:00.104Z,16.693
2023-07-03T08:58:02.143Z,16.406
2023-07-03T09:13:04.104Z,16.383
2023-07-03T09:28:05.943Z,16.809
2023-07-03T09:43:07.814Z,17.149
2023-07-03T09:58:09.610Z,17.375
2023-07-03T10:13:11.446Z,17.274
2023-07-03T10:28:13.301Z,17.127
2023-07-03T10:43:15.226Z,17.318
2023-07-03T10:58:16.993Z,17.593
2023-07-03T11:13:18.845Z,17.676
2023-07-03T11:28:20.695Z,17.729
2023-07-03T11:58:24.559Z,17.88
2023-07-03T12:13:26.463Z,17.791
2023-07-03T12:28:28.274Z,18.251
2023-07-03T12:43:30.092Z,18.215
2023-07-03T12:58:31.924Z,18.434
2023-07-03T13:13:33.930Z,18.618
2023-07-03T13:28:35.749Z,18.753
2023-07-03T13:43:37.560Z,18.697
2023-07-03T13:58:39.357Z,19.048
2023-07-03T14:13:41.254Z,19.046
2023-07-03T14:28:43.191Z,19.239
2023-07-03T14:43:45.065Z,19.098
2023-07-03T14:58:46.874Z,19.262
2023-07-03T15:13:48.903Z,19.167
2023-07-03T15:28:50.784Z,19.055
2023-07-03T15:43:52.860Z,18.79
2023-07-03T15:58:54.690Z,18.814
2023-07-03T16:13:56.509Z,19.144
2023-07-03T16:28:58.410Z,18.809
2023-07-03T16:44:00.227Z,18.736
2023-07-03T16:59:02.072Z,19.07
2023-07-03T17:14:03.897Z,19.166
2023-07-03T17:29:05.648Z,18.776
2023-07-03T17:44:07.458Z,18.868
2023-07-03T17:59:09.262Z,19.646
2023-07-03T18:14:11.094Z,19.918
2023-07-03T18:29:12.949Z,20.793
2023-07-03T18:44:14.799Z,20.515
2023-07-03T18:59:16.638Z,20.092
2023-07-03T19:14:18.428Z,20.305
2023-07-03T19:29:20.289Z,20.271
2023-07-03T19:44:22.133Z,20.412
2023-07-03T19:59:24.043Z,20.489
2023-07-03T20:14:25.873Z,20.221
2023-07-03T20:29:27.717Z,19.929
2023-07-03T20:44:29.565Z,19.41
2023-07-03T20:59:31.324Z,18.142
2023-07-03T21:14:33.117Z,17.535
2023-07-03T21:29:34.932Z,14.566
2023-07-03T21:44:36.789Z,13.983
2023-07-03T21:59:38.586Z,13.941
2023-07-03T22:14:40.468Z,13.45
2023-07-03T22:29:42.264Z,13.434
2023-07-03T22:44:44.083Z,13.524
2023-07-03T22:59:45.875Z,13.708
2023-07-03T23:14:47.718Z,12.959
2023-07-03T23:29:49.553Z,12.886
2023-07-03T23:44:51.383Z,14.665
2023-07-03T23:59:53.247Z,15.369
